createdAt,value
2022-10-22T00:00:03.276Z,3.90
2022-10-22T00:04:07.194Z,3.97
2022-10-22T00:08:09.120Z,3.60
2022-10-22T00:12:11.644Z,3.45
2022-10-22T00:16:13.889Z,3.40
2022-10-22T00:20:16.763Z,3.38
2022-10-22T00:24:18.876Z,4.25
2022-10-22T00:28:21.031Z,2.85
2022-10-22T00:32:23.167Z,3.75
2022-10-22T00:36:25.084Z,4.25
2022-10-22T00:40:27.022Z,4.03
2022-10-22T00:45:03.258Z,3.58
2022-10-22T00:49:05.993Z,3.88
2022-10-22T00:53:24.916Z,3.25
2022-10-22T00:57:27.820Z,3.70
2022-10-22T01:01:32.241Z,4.00
2022-10-22T01:05:42.814Z,3.97
2022-10-22T01:10:20.384Z,4.00
2022-10-22T01:14:45.718Z,4.30
2022-10-22T01:19:14.447Z,4.70
2022-10-22T01:23:35.270Z,4.10
2022-10-22T01:28:01.679Z,4.32
2022-10-22T01:32:16.427Z,4.18
2022-10-22T01:36:19.940Z,4.35
2022-10-22T01:40:23.939Z,4.30
2022-10-22T01:48:46.008Z,4.30
2022-10-22T01:53:23.840Z,4.05
2022-10-22T01:57:58.076Z,3.95
2022-10-22T02:02:06.016Z,4.10
2022-10-22T02:06:17.698Z,4.10
2022-10-22T02:10:20.122Z,4.60
2022-10-22T02:14:23.299Z,4.35
2022-10-22T02:18:30.251Z,5.17
2022-10-22T02:22:32.866Z,4.82
2022-10-22T02:26:43.554Z,5.30
2022-10-22T02:30:52.064Z,5.13
2022-10-22T02:34:56.786Z,5.10
2022-10-22T02:39:00.126Z,5.00
2022-10-22T02:43:04.724Z,4.75
2022-10-22T02:47:06.765Z,4.80
2022-10-22T02:51:09.194Z,5.80
2022-10-22T02:55:11.175Z,5.18
2022-10-22T02:59:13.153Z,5.57
2022-10-22T03:03:15.132Z,6.07
2022-10-22T03:07:17.083Z,6.30
2022-10-22T03:11:19.244Z,5.57
2022-10-22T03:15:21.536Z,5.45
2022-10-22T03:19:23.484Z,5.65
2022-10-22T03:23:25.949Z,6.05
2022-10-22T03:27:29.463Z,6.97
2022-10-22T03:31:31.771Z,6.20
2022-10-22T03:35:42.459Z,6.93
2022-10-22T03:39:45.164Z,6.13
2022-10-22T03:43:51.489Z,7.05
2022-10-22T03:47:53.425Z,6.32
2022-10-22T03:51:55.302Z,6.38
2022-10-22T03:55:57.227Z,6.10
2022-10-22T03:59:59.143Z,6.72
2022-10-22T04:04:01.240Z,6.13
2022-10-22T04:08:03.292Z,6.38
2022-10-22T04:12:07.941Z,6.47
2022-10-22T04:16:12.401Z,6.85
2022-10-22T04:20:17.356Z,6.45
2022-10-22T04:24:21.462Z,6.45
2022-10-22T04:28:23.545Z,6.43
2022-10-22T04:32:26.917Z,6.10
2022-10-22T04:36:29.459Z,6.73
2022-10-22T04:40:31.451Z,6.97
2022-10-22T04:44:33.728Z,7.63
2022-10-22T04:48:37.377Z,7.15
2022-10-22T04:52:39.708Z,7.35
2022-10-22T04:56:41.707Z,7.88
2022-10-22T05:00:43.725Z,6.75
2022-10-22T05:04:45.688Z,5.55
2022-10-22T05:08:48.710Z,6.32
2022-10-22T05:12:51.100Z,5.53
2022-10-22T05:16:53.445Z,5.30
2022-10-22T05:20:55.397Z,5.35
2022-10-22T05:24:57.578Z,5.65
2022-10-22T05:28:59.585Z,5.20
2022-10-22T05:33:01.576Z,5.63
2022-10-22T05:37:03.810Z,5.40
2022-10-22T05:41:09.080Z,5.38
2022-10-22T05:45:12.977Z,4.75
2022-10-22T05:49:16.239Z,4.68
2022-10-22T05:53:18.699Z,4.55
2022-10-22T05:57:20.699Z,4.28
2022-10-22T06:01:25.908Z,4.80
2022-10-22T06:05:27.930Z,4.82
2022-10-22T06:09:35.368Z,4.28
2022-10-22T06:13:37.424Z,4.30
2022-10-22T06:17:39.990Z,6.30
2022-10-22T06:21:42.799Z,5.68
2022-10-22T06:25:45.197Z,5.03
2022-10-22T06:29:48.527Z,4.53
2022-10-22T06:33:50.488Z,5.32
2022-10-22T06:37:52.478Z,5.18
2022-10-22T06:41:54.408Z,6.47
2022-10-22T06:46:00.833Z,4.03
2022-10-22T06:50:02.842Z,3.95
2022-10-22T06:54:04.862Z,3.67
2022-10-22T06:58:07.027Z,5.63
2022-10-22T07:02:10.479Z,5.28
2022-10-22T07:06:14.221Z,5.23
2022-10-22T07:10:16.244Z,5.25
2022-10-22T07:14:18.442Z,4.93
2022-10-22T07:18:20.668Z,5.18
2022-10-22T07:22:22.607Z,4.78
2022-10-22T07:26:25.721Z,8.65
2022-10-22T07:30:27.744Z,11.23
2022-10-22T07:34:29.773Z,5.85
2022-10-22T07:38:46.018Z,5.05
2022-10-22T07:42:47.934Z,5.50
2022-10-22T07:46:50.293Z,4.97
2022-10-22T07:50:52.280Z,5.50
2022-10-22T07:54:54.212Z,5.28
2022-10-22T07:58:56.292Z,5.25
2022-10-22T08:02:58.364Z,4.47
2022-10-22T08:07:01.442Z,4.55
2022-10-22T08:11:03.619Z,4.63
2022-10-22T08:15:08.132Z,4.07
2022-10-22T08:19:10.063Z,4.22
2022-10-22T08:23:11.999Z,4.07
2022-10-22T08:27:14.097Z,3.40
2022-10-22T08:31:16.079Z,3.30
2022-10-22T08:35:18.094Z,3.35
2022-10-22T08:39:20.057Z,3.03
2022-10-22T08:43:32.573Z,3.20
2022-10-22T08:48:15.482Z,3.00
2022-10-22T08:52:19.936Z,3.97
2022-10-22T08:56:23.912Z,3.08
2022-10-22T09:00:36.678Z,3.60
2022-10-22T09:05:02.350Z,3.28
2022-10-22T09:09:11.916Z,3.15
2022-10-22T09:13:18.340Z,2.97
2022-10-22T09:17:38.775Z,3.15
2022-10-22T09:21:56.786Z,3.28
2022-10-22T09:25:59.816Z,3.28
2022-10-22T09:30:02.264Z,3.22
2022-10-22T09:34:07.553Z,3.35
2022-10-22T09:38:09.589Z,4.25
2022-10-22T09:42:16.289Z,3.55
2022-10-22T09:46:21.391Z,3.90
2022-10-22T09:50:41.100Z,4.13
2022-10-22T09:54:43.158Z,3.90
2022-10-22T09:58:49.402Z,4.10
2022-10-22T10:02:58.594Z,3.75
2022-10-22T10:07:00.627Z,3.47
2022-10-22T10:11:36.519Z,4.05
2022-10-22T10:15:51.867Z,3.67
2022-10-22T10:20:31.746Z,4.00
2022-10-22T10:24:56.073Z,3.72
2022-10-22T10:29:38.997Z,3.97
2022-10-22T10:34:03.035Z,4.80
2022-10-22T10:38:34.363Z,3.65
2022-10-22T10:42:39.878Z,4.38
2022-10-22T10:46:55.475Z,4.32
2022-10-22T10:51:47.546Z,3.78
2022-10-22T10:56:01.921Z,4.15
2022-10-22T11:00:11.915Z,4.55
2022-10-22T11:04:34.562Z,3.83
2022-10-22T11:08:43.574Z,4.22
2022-10-22T11:12:51.484Z,4.30
2022-10-22T11:17:06.047Z,4.45
2022-10-22T11:21:39.880Z,4.00
2022-10-22T11:25:46.083Z,4.70
2022-10-22T11:29:54.167Z,3.80
2022-10-22T11:34:39.650Z,4.18
2022-10-22T11:38:41.698Z,3.97
2022-10-22T11:42:54.360Z,3.92
2022-10-22T11:47:15.682Z,4.00
2022-10-22T11:51:37.197Z,4.50
2022-10-22T11:55:55.789Z,4.68
2022-10-22T12:00:01.760Z,3.72
2022-10-22T12:04:39.514Z,3.80
2022-10-22T12:08:54.183Z,3.72
2022-10-22T12:12:58.738Z,4.15
2022-10-22T12:17:15.777Z,5.22
2022-10-22T12:21:17.778Z,4.97
2022-10-22T12:25:24.371Z,3.92
2022-10-22T12:29:28.124Z,4.70
2022-10-22T12:33:32.722Z,4.30
2022-10-22T12:37:38.681Z,4.30
2022-10-22T12:41:41.036Z,4.30
2022-10-22T12:45:46.001Z,4.53
2022-10-22T12:49:50.187Z,4.53
2022-10-22T12:53:55.279Z,3.97
2022-10-22T12:57:57.308Z,4.53
2022-10-22T13:01:59.828Z,4.22
2022-10-22T13:06:20.157Z,3.97
2022-10-22T13:10:33.784Z,3.85
2022-10-22T13:14:38.249Z,4.20
2022-10-22T13:18:40.910Z,4.30
2022-10-22T13:22:55.107Z,3.72
2022-10-22T13:26:57.546Z,4.18
2022-10-22T13:31:03.037Z,4.43
2022-10-22T13:35:05.478Z,3.88
2022-10-22T13:39:16.387Z,5.22
2022-10-22T13:43:19.447Z,4.07
2022-10-22T13:47:29.553Z,3.80
2022-10-22T13:51:35.642Z,4.40
2022-10-22T13:55:37.573Z,4.45
2022-10-22T13:59:39.687Z,4.22
2022-10-22T14:03:42.089Z,5.10
2022-10-22T14:07:44.600Z,4.28
2022-10-22T14:11:46.727Z,4.95
2022-10-22T14:15:51.585Z,4.43
2022-10-22T14:19:53.591Z,3.90
2022-10-22T14:23:55.538Z,4.65
2022-10-22T14:27:57.625Z,3.65
2022-10-22T14:31:59.588Z,4.00
2022-10-22T14:36:01.902Z,4.22
2022-10-22T14:40:04.447Z,4.32
2022-10-22T14:44:06.671Z,5.07
2022-10-22T14:48:08.648Z,6.28
2022-10-22T14:52:14.145Z,4.00
2022-10-22T14:56:21.289Z,3.78
2022-10-22T15:00:23.506Z,4.70
2022-10-22T15:04:27.223Z,4.63
2022-10-22T15:12:31.369Z,4.38
2022-10-22T15:16:33.447Z,4.22
2022-10-22T15:20:35.440Z,4.50
2022-10-22T15:24:38.971Z,4.75
2022-10-22T15:28:41.610Z,4.85
2022-10-22T15:32:43.778Z,4.55
2022-10-22T15:36:45.898Z,4.60
2022-10-22T15:40:48.313Z,4.90
2022-10-22T15:44:58.518Z,4.53
2022-10-22T15:49:00.587Z,7.90
2022-10-22T15:53:02.726Z,5.53
2022-10-22T15:57:08.839Z,4.60
2022-10-22T16:01:13.183Z,4.35
2022-10-22T16:05:15.238Z,4.95
2022-10-22T16:09:20.238Z,5.32
2022-10-22T16:13:24.931Z,5.15
2022-10-22T16:17:26.893Z,5.55
2022-10-22T16:21:29.144Z,5.60
2022-10-22T16:25:31.526Z,5.57
2022-10-22T16:29:33.693Z,8.50
2022-10-22T16:33:41.614Z,6.10
2022-10-22T16:37:46.817Z,5.97
2022-10-22T16:41:48.863Z,6.57
2022-10-22T16:45:50.861Z,5.13
2022-10-22T16:49:53.049Z,5.82
2022-10-22T16:53:56.678Z,6.03
2022-10-22T16:57:58.929Z,4.60
2022-10-22T17:02:00.946Z,6.20
2022-10-22T17:06:04.582Z,5.85
2022-10-22T17:10:09.118Z,6.18
2022-10-22T17:14:11.291Z,6.20
2022-10-22T17:18:13.223Z,5.75
2022-10-22T17:22:17.718Z,6.00
2022-10-22T17:26:22.691Z,6.50
2022-10-22T17:30:27.238Z,6.35
2022-10-22T17:34:33.124Z,7.28
2022-10-22T17:38:35.918Z,6.70
2022-10-22T17:42:38.136Z,6.63
2022-10-22T17:46:40.126Z,6.40
2022-10-22T17:50:45.874Z,6.47
2022-10-22T17:54:53.240Z,7.40
2022-10-22T17:58:55.830Z,6.25
2022-10-22T18:02:59.885Z,6.38
2022-10-22T18:07:02.095Z,7.50
2022-10-22T18:11:12.140Z,7.00
2022-10-22T18:15:14.344Z,7.55
2022-10-22T18:19:19.487Z,7.88
2022-10-22T18:23:21.454Z,6.53
2022-10-22T18:27:23.454Z,7.00
2022-10-22T18:31:27.046Z,6.50
2022-10-22T18:35:32.368Z,6.40
2022-10-22T18:39:34.846Z,8.02
2022-10-22T18:43:37.432Z,7.93
2022-10-22T18:47:42.835Z,6.05
2022-10-22T18:51:46.612Z,6.68
2022-10-22T18:55:48.610Z,7.05
2022-10-22T18:59:50.695Z,6.78
2022-10-22T19:03:53.048Z,6.88
2022-10-22T19:07:55.017Z,7.43
2022-10-22T19:11:57.036Z,7.18
2022-10-22T19:16:03.720Z,6.40
2022-10-22T19:20:06.307Z,7.15
2022-10-22T19:24:08.601Z,7.72
2022-10-22T19:28:10.630Z,7.20
2022-10-22T19:32:13.111Z,8.23
2022-10-22T19:36:19.887Z,7.72
2022-10-22T19:40:25.760Z,6.95
2022-10-22T19:44:28.433Z,7.10
2022-10-22T19:48:30.438Z,7.10
2022-10-22T19:52:33.395Z,7.03
2022-10-22T19:56:37.611Z,7.07
2022-10-22T20:04:41.808Z,7.10
2022-10-22T20:08:44.100Z,7.03
2022-10-22T20:12:46.131Z,7.10
2022-10-22T20:16:48.210Z,7.07
2022-10-22T20:20:50.424Z,6.03
2022-10-22T20:24:52.400Z,6.53
2022-10-22T20:28:56.613Z,6.72
2022-10-22T20:32:58.649Z,6.90
2022-10-22T20:37:00.569Z,7.32
2022-10-22T20:41:14.059Z,7.00
2022-10-22T20:45:16.391Z,6.73
2022-10-22T20:49:20.674Z,7.05
2022-10-22T20:53:22.989Z,7.45
2022-10-22T20:57:25.214Z,7.13
2022-10-22T21:01:28.530Z,7.43
2022-10-22T21:05:30.652Z,7.43
2022-10-22T21:09:34.954Z,8.80
2022-10-22T21:13:37.016Z,8.13
2022-10-22T21:17:40.335Z,7.22
2022-10-22T21:21:42.433Z,7.63
2022-10-22T21:25:56.408Z,8.35
2022-10-22T21:29:58.576Z,7.75
2022-10-22T21:34:01.049Z,7.90
2022-10-22T21:38:03.592Z,9.57
2022-10-22T21:42:05.755Z,8.02
2022-10-22T21:46:10.814Z,8.32
2022-10-22T21:50:12.818Z,9.10
2022-10-22T21:54:14.836Z,8.70
2022-10-22T21:58:16.869Z,9.15
2022-10-22T22:02:18.818Z,8.00
2022-10-22T22:06:24.132Z,8.10
2022-10-22T22:10:26.691Z,7.43
2022-10-22T22:14:28.674Z,8.35
2022-10-22T22:18:31.487Z,8.50
2022-10-22T22:22:33.518Z,7.53
2022-10-22T22:26:36.200Z,7.93
2022-10-22T22:30:38.171Z,7.85
2022-10-22T22:34:41.460Z,7.63
2022-10-22T22:38:43.379Z,7.53
2022-10-22T22:42:45.315Z,7.40
2022-10-22T22:46:47.286Z,7.50
2022-10-22T22:50:49.621Z,8.15
2022-10-22T22:54:51.601Z,8.10
2022-10-22T22:58:54.760Z,8.18
2022-10-22T23:02:56.830Z,7.95
2022-10-22T23:06:59.031Z,7.72
2022-10-22T23:11:10.117Z,7.93
2022-10-22T23:15:12.059Z,8.45
2022-10-22T23:19:16.893Z,8.00
2022-10-22T23:23:19.754Z,8.68
2022-10-22T23:27:22.070Z,8.18
2022-10-22T23:31:24.130Z,8.10
2022-10-22T23:35:26.317Z,8.75
2022-10-22T23:39:29.351Z,8.15
2022-10-22T23:43:32.323Z,8.65
2022-10-22T23:47:34.832Z,8.35
2022-10-22T23:51:38.093Z,9.55
2022-10-22T23:55:42.868Z,8.55
2022-10-22T23:59:45.008Z,10.05
